Time;durP1;ratioP1;P1;durP2;ratioP2;P2;SDS_P1;SDS_P2;PMS_P1;PMS_P2;Temp;Humidity;BMP_temperature;BMP_pressure;BME280_temperature;BME280_humidity;BME280_pressure;Samples;Min_cycle;Max_cycle;Signal;HPM_P1;HPM_P2
2021/05/22 00:00:18;;;;;;;;;;;;;;;21.13;62.63;100878.92;1771233;79;20283;-63
2021/05/22 00:02:46;;;;;;;;;;;;;;;21.15;62.67;100876.67;1772692;79;20272;-63
2021/05/22 00:05:12;;;;;;;;;;;;;;;21.17;62.70;100875.80;1774985;79;20327;-63
2021/05/22 00:07:38;;;;;;;;;;;;;;;21.21;62.74;100873.20;1773114;79;21129;-62
2021/05/22 00:10:09;;;;;;;;;;;;;;;21.23;62.74;100880.03;1772179;79;21598;-63
2021/05/22 00:12:34;;;;;;;;;;;;;;;21.26;62.76;100881.36;1769662;79;20250;-63
2021/05/22 00:15:01;;;;;;;;;;;;;;;21.30;62.76;100887.89;1774643;79;20276;-63
2021/05/22 00:17:27;;;;;;;;;;;;;;;21.34;62.76;100893.81;1772745;79;20290;-63
2021/05/22 00:19:53;;;;;;;;;;;;;;;21.37;62.71;100892.38;1774644;79;23175;-63
2021/05/22 00:22:19;;;;;;;;;;;;;;;21.38;62.71;100889.86;1768075;79;20235;-63
2021/05/22 00:24:45;;;;;;;;;;;;;;;21.39;62.70;100892.86;1778231;79;20257;-63
2021/05/22 00:27:11;;;;;;;;;;;;;;;21.39;62.67;100889.52;1772451;79;20657;-63
2021/05/22 00:29:36;;;;;;;;;;;;;;;21.42;62.64;100895.00;1767367;80;20212;-64
2021/05/22 00:32:03;;;;;;;;;;;;;;;21.40;62.54;100898.64;1772928;80;21113;-64
2021/05/22 00:34:29;;;;;;;;;;;;;;;21.38;62.51;100894.02;1728830;80;20587;-64
2021/05/22 00:36:55;;;;;;;;;;;;;;;21.37;62.49;100897.91;1744942;81;20693;-64
2021/05/22 00:39:21;;;;;;;;;;;;;;;21.35;62.45;100901.55;1753258;80;20450;-64
2021/05/22 00:41:46;;;;;;;;;;;;;;;21.33;62.42;100901.07;1744497;80;20257;-64
2021/05/22 00:44:12;;;;;;;;;;;;;;;21.30;62.40;100892.83;1748098;80;23261;-63
2021/05/22 00:46:38;;;;;;;;;;;;;;;21.28;62.37;100900.65;1744037;81;20217;-63
2021/05/22 00:49:04;;;;;;;;;;;;;;;21.25;62.36;100899.91;1763999;80;20213;-63
2021/05/22 00:51:30;;;;;;;;;;;;;;;21.23;62.34;100903.55;1746955;80;20249;-63
2021/05/22 00:53:56;;;;;;;;;;;;;;;21.21;62.33;100907.78;1750763;81;20311;-63
2021/05/22 00:56:22;;;;;;;;;;;;;;;21.19;62.32;100907.27;1772752;79;20969;-63
2021/05/22 00:58:48;;;;;;;;;;;;;;;21.16;62.32;100912.07;1765864;80;20275;-63
2021/05/22 01:01:14;;;;;;;;;;;;;;;21.14;62.35;100910.99;1761345;80;20195;-63
2021/05/22 01:03:44;;;;;;;;;;;;;;;21.12;62.33;100909.66;1762674;80;20247;-64
2021/05/22 01:06:23;;;;;;;;;;;;;;;21.11;62.34;100909.41;1765815;80;20585;-63
2021/05/22 01:08:54;;;;;;;;;;;;;;;21.08;62.33;100902.57;1751953;80;21080;-64
2021/05/22 01:11:35;;;;;;;;;;;;;;;21.06;62.35;100901.24;1749593;80;20483;-64
2021/05/22 01:14:23;;;;;;;;;;;;;;;21.04;62.34;100902.14;1759663;80;20511;-62
2021/05/22 01:16:51;;;;;;;;;;;;;;;21.01;62.35;100904.95;1743837;80;20287;-63
2021/05/22 01:19:44;;;;;;;;;;;;;;;21.00;62.35;100906.12;1759510;80;20255;-63
2021/05/22 01:22:10;;;;;;;;;;;;;;;20.97;62.37;100901.20;1768433;80;21000;-63
2021/05/22 01:24:46;;;;;;;;;;;;;;;20.95;62.37;100899.33;1737205;80;20493;-63
2021/05/22 01:27:11;;;;;;;;;;;;;;;20.93;62.38;100898.25;1760960;80;20466;-63
2021/05/22 01:29:38;;;;;;;;;;;;;;;20.92;62.38;100894.41;1768340;80;20557;-63
2021/05/22 01:32:04;;;;;;;;;;;;;;;20.91;62.38;100893.63;1762942;80;20216;-64
2021/05/22 01:34:30;;;;;;;;;;;;;;;20.89;62.39;100893.11;1764599;80;21093;-63
2021/05/22 01:36:57;;;;;;;;;;;;;;;20.89;62.40;100889.53;1769296;79;20726;-63
2021/05/22 01:39:22;;;;;;;;;;;;;;;20.88;62.41;100886.50;1775130;79;20266;-63
2021/05/22 01:41:48;;;;;;;;;;;;;;;20.87;62.44;100885.72;1773480;79;20432;-63
2021/05/22 01:44:14;;;;;;;;;;;;;;;20.86;62.42;100881.31;1764627;79;20445;-64
2021/05/22 01:46:42;;;;;;;;;;;;;;;20.85;62.45;100878.85;1769985;80;21073;-64
2021/05/22 01:49:08;;;;;;;;;;;;;;;20.84;62.44;100878.59;1771187;79;20172;-64
2021/05/22 01:51:35;;;;;;;;;;;;;;;20.83;62.46;100881.95;1771536;79;20195;-63
2021/05/22 01:54:01;;;;;;;;;;;;;;;20.83;62.46;100883.34;1770800;79;20235;-63
2021/05/22 01:56:27;;;;;;;;;;;;;;;20.82;62.46;100883.08;1772110;79;20697;-63
2021/05/22 01:58:53;;;;;;;;;;;;;;;20.81;62.46;100885.59;1772896;79;21272;-63
2021/05/22 02:01:20;;;;;;;;;;;;;;;20.81;62.46;100882.82;1774005;79;21281;-64
2021/05/22 02:03:48;;;;;;;;;;;;;;;20.80;62.47;100875.66;1777410;79;20262;-63
2021/05/22 02:06:17;;;;;;;;;;;;;;;20.80;62.47;100883.95;1774985;79;20493;-64
2021/05/22 02:08:44;;;;;;;;;;;;;;;20.79;62.48;100880.14;1776448;79;20274;-64
2021/05/22 02:11:09;;;;;;;;;;;;;;;20.78;62.46;100882.64;1771118;79;21067;-63
2021/05/22 02:13:35;;;;;;;;;;;;;;;20.78;62.48;100872.97;1774249;79;20138;-64
2021/05/22 02:16:02;;;;;;;;;;;;;;;20.78;62.48;100877.94;1776928;79;20271;-63
2021/05/22 02:18:29;;;;;;;;;;;;;;;20.82;62.43;100882.26;1773559;79;20569;-64
2021/05/22 02:20:56;;;;;;;;;;;;;;;20.83;62.44;100881.95;1778532;79;20262;-64
2021/05/22 02:23:22;;;;;;;;;;;;;;;20.85;62.46;100878.28;1771972;79;21253;-63
2021/05/22 02:25:51;;;;;;;;;;;;;;;20.89;62.49;100882.61;1775107;79;20486;-63
2021/05/22 02:28:17;;;;;;;;;;;;;;;20.92;62.50;100880.59;1772009;79;20258;-63
2021/05/22 02:30:42;;;;;;;;;;;;;;;20.94;62.54;100882.48;1745118;80;20664;-63
2021/05/22 02:33:11;;;;;;;;;;;;;;;20.97;62.54;100884.04;1730220;82;20695;-63
2021/05/22 02:35:40;;;;;;;;;;;;;;;21.01;62.55;100884.78;1773198;79;23232;-63
2021/05/22 02:38:05;;;;;;;;;;;;;;;21.04;62.51;100889.13;1766041;80;20540;-63
2021/05/22 02:40:31;;;;;;;;;;;;;;;21.07;62.51;100887.66;1771006;79;20235;-63
2021/05/22 02:43:00;;;;;;;;;;;;;;;21.09;62.49;100885.41;1768761;80;22016;-63
2021/05/22 02:45:26;;;;;;;;;;;;;;;21.10;62.49;100890.60;1768742;79;20279;-62
2021/05/22 02:47:53;;;;;;;;;;;;;;;21.11;62.43;100899.16;1774645;79;21263;-63
2021/05/22 02:50:19;;;;;;;;;;;;;;;21.11;62.39;100908.84;1770983;79;20148;-62
2021/05/22 02:52:45;;;;;;;;;;;;;;;21.10;62.35;100905.00;1767941;80;20190;-63
2021/05/22 02:55:12;;;;;;;;;;;;;;;21.09;62.32;100901.41;1770381;79;20176;-63
2021/05/22 02:57:38;;;;;;;;;;;;;;;21.07;62.28;100903.70;1767626;80;20542;-63
2021/05/22 03:00:06;;;;;;;;;;;;;;;21.06;62.23;100908.16;1743141;80;21835;-63
2021/05/22 03:02:33;;;;;;;;;;;;;;;21.04;62.24;100907.11;1739951;80;20247;-63
2021/05/22 03:04:59;;;;;;;;;;;;;;;21.02;62.19;100909.92;1743158;80;20211;-62
2021/05/22 03:07:25;;;;;;;;;;;;;;;21.00;62.19;100910.83;1719916;80;20241;-63
2021/05/22 03:09:51;;;;;;;;;;;;;;;20.97;62.14;100915.84;1718020;80;20223;-64
2021/05/22 03:12:21;;;;;;;;;;;;;;;20.94;62.13;100909.58;1743906;80;21108;-63
2021/05/22 03:14:47;;;;;;;;;;;;;;;20.92;62.14;100913.21;1740534;80;20168;-64
2021/05/22 03:17:17;;;;;;;;;;;;;;;20.90;62.13;100911.34;1748154;80;20342;-64
2021/05/22 03:19:41;;;;;;;;;;;;;;;20.89;62.13;100918.56;1742191;80;20535;-63
2021/05/22 03:22:07;;;;;;;;;;;;;;;20.86;62.12;100917.26;1747734;80;20269;-63
2021/05/22 03:24:33;;;;;;;;;;;;;;;20.84;62.13;100918.13;1749939;80;23223;-65
2021/05/22 03:26:59;;;;;;;;;;;;;;;20.83;62.13;100923.43;1715668;82;20258;-64
2021/05/22 03:29:25;;;;;;;;;;;;;;;20.81;62.14;100925.68;1756471;81;20617;-64
2021/05/22 03:31:51;;;;;;;;;;;;;;;20.80;62.13;100920.45;1755309;81;20280;-64
2021/05/22 03:34:17;;;;;;;;;;;;;;;20.78;62.13;100928.27;1771029;79;20244;-64
2021/05/22 03:36:44;;;;;;;;;;;;;;;20.77;62.13;100926.62;1771513;79;21119;-63
2021/05/22 03:39:10;;;;;;;;;;;;;;;20.76;62.17;100929.14;1774836;79;20307;-64
2021/05/22 03:41:36;;;;;;;;;;;;;;;20.73;62.14;100927.83;1771925;79;20208;-63
2021/05/22 03:44:02;;;;;;;;;;;;;;;20.72;62.17;100926.75;1773719;79;20250;-64
2021/05/22 03:46:28;;;;;;;;;;;;;;;20.71;62.17;100927.31;1774945;79;20343;-64
2021/05/22 03:48:54;;;;;;;;;;;;;;;20.70;62.17;100929.85;1771067;79;21129;-64
2021/05/22 03:51:20;;;;;;;;;;;;;;;20.69;62.17;100934.30;1770624;79;20284;-64
2021/05/22 03:53:46;;;;;;;;;;;;;;;20.69;62.17;100937.06;1775041;79;20559;-64
2021/05/22 03:56:11;;;;;;;;;;;;;;;20.67;62.18;100937.38;1774082;79;20237;-64
2021/05/22 03:58:37;;;;;;;;;;;;;;;20.67;62.19;100936.55;1772288;79;20275;-64
2021/05/22 04:01:03;;;;;;;;;;;;;;;20.65;62.20;100939.65;1743904;80;20932;-64
2021/05/22 04:03:29;;;;;;;;;;;;;;;20.65;62.20;100940.21;1750862;80;20732;-64
2021/05/22 04:05:55;;;;;;;;;;;;;;;20.64;62.19;100935.81;1723941;82;20170;-63
2021/05/22 04:08:21;;;;;;;;;;;;;;;20.63;62.21;100933.60;1772375;79;20712;-64
2021/05/22 04:10:47;;;;;;;;;;;;;;;20.64;62.24;100936.62;1773504;79;20266;-64
2021/05/22 04:13:13;;;;;;;;;;;;;;;20.66;62.23;100930.80;1771319;79;21676;-64
2021/05/22 04:15:39;;;;;;;;;;;;;;;20.67;62.25;100931.84;1769709;79;20236;-64
2021/05/22 04:18:05;;;;;;;;;;;;;;;20.70;62.23;100927.09;1773038;79;20280;-64
2021/05/22 04:20:31;;;;;;;;;;;;;;;20.72;62.22;100924.80;1774151;79;20722;-64
2021/05/22 04:22:57;;;;;;;;;;;;;;;20.74;62.20;100928.66;1775497;79;20207;-63
2021/05/22 04:25:23;;;;;;;;;;;;;;;20.76;62.17;100929.95;1772480;79;21059;-63
2021/05/22 04:27:49;;;;;;;;;;;;;;;20.76;62.15;100926.38;1773580;79;20271;-64
2021/05/22 04:30:16;;;;;;;;;;;;;;;20.78;62.12;100934.62;1771973;79;20314;-64
2021/05/22 04:32:42;;;;;;;;;;;;;;;20.78;62.12;100945.68;1771770;79;20270;-63
2021/05/22 04:35:08;;;;;;;;;;;;;;;20.80;62.10;100948.93;1772743;79;20259;-64
2021/05/22 04:37:34;;;;;;;;;;;;;;;20.82;62.12;100950.83;1741351;80;21137;-65
2021/05/22 04:40:00;;;;;;;;;;;;;;;20.84;62.11;100950.49;1746658;81;20818;-64
2021/05/22 04:42:27;;;;;;;;;;;;;;;20.86;62.09;100952.39;1737098;81;20181;-64
2021/05/22 04:44:53;;;;;;;;;;;;;;;20.88;62.05;100948.16;1739262;81;20280;-64
2021/05/22 04:47:19;;;;;;;;;;;;;;;20.93;62.03;100950.80;1742166;81;20228;-64
2021/05/22 04:49:45;;;;;;;;;;;;;;;20.97;62.02;100955.95;1736265;81;21162;-65
2021/05/22 04:52:11;;;;;;;;;;;;;;;21.01;62.00;100958.08;1739178;81;21118;-64
2021/05/22 04:54:37;;;;;;;;;;;;;;;21.05;62.02;100957.12;1744691;81;20253;-64
2021/05/22 04:57:03;;;;;;;;;;;;;;;21.11;62.05;100957.82;1744721;81;22089;-64
2021/05/22 04:59:29;;;;;;;;;;;;;;;21.16;62.05;100958.55;1737496;81;20241;-65
2021/05/22 05:01:55;;;;;;;;;;;;;;;21.23;62.06;100960.84;1748294;81;21078;-64
2021/05/22 05:04:21;;;;;;;;;;;;;;;21.30;62.04;100961.22;1738962;81;20792;-65
2021/05/22 05:06:47;;;;;;;;;;;;;;;21.35;62.00;100969.36;1734158;81;20245;-65
2021/05/22 05:09:13;;;;;;;;;;;;;;;21.40;61.96;100968.66;1741406;81;21857;-64
2021/05/22 05:11:39;;;;;;;;;;;;;;;21.45;61.92;100973.80;1746413;81;20212;-64
2021/05/22 05:14:05;;;;;;;;;;;;;;;21.49;61.89;100974.80;1737599;81;21012;-64
2021/05/22 05:16:31;;;;;;;;;;;;;;;21.53;61.85;100979.95;1738312;81;20320;-64
2021/05/22 05:18:57;;;;;;;;;;;;;;;21.57;61.79;100978.98;1738451;81;20284;-64
2021/05/22 05:21:23;;;;;;;;;;;;;;;21.59;61.72;100978.68;1738265;81;20612;-63
2021/05/22 05:23:49;;;;;;;;;;;;;;;21.60;61.63;100978.34;1743701;81;20188;-63
2021/05/22 05:26:15;;;;;;;;;;;;;;;21.60;61.53;100982.48;1736047;81;21154;-63
2021/05/22 05:28:40;;;;;;;;;;;;;;;21.61;61.49;100981.36;1734677;81;20822;-63
2021/05/22 05:31:06;;;;;;;;;;;;;;;21.61;61.42;100985.52;1734663;81;20819;-63
2021/05/22 05:33:32;;;;;;;;;;;;;;;21.59;61.38;100979.50;1736287;81;21904;-63
2021/05/22 05:35:58;;;;;;;;;;;;;;;21.58;61.33;100984.78;1748513;80;20758;-63
2021/05/22 05:38:24;;;;;;;;;;;;;;;21.57;61.30;100982.32;1771957;79;20950;-63
2021/05/22 05:40:54;;;;;;;;;;;;;;;21.56;61.30;100986.22;1774642;80;21686;-63
2021/05/22 05:43:18;;;;;;;;;;;;;;;21.55;61.26;100986.81;1776809;79;20271;-63
2021/05/22 05:45:44;;;;;;;;;;;;;;;21.54;61.25;100985.73;1775080;79;20425;-63
2021/05/22 05:48:10;;;;;;;;;;;;;;;21.54;61.26;100985.17;1773302;79;20198;-63
2021/05/22 05:50:36;;;;;;;;;;;;;;;21.52;61.25;100987.42;1774071;79;21027;-63
2021/05/22 05:53:02;;;;;;;;;;;;;;;21.52;61.23;100993.53;1774116;79;20792;-63
2021/05/22 05:55:28;;;;;;;;;;;;;;;21.52;61.22;100987.99;1775601;79;20172;-64
2021/05/22 05:57:56;;;;;;;;;;;;;;;21.51;61.22;100991.36;1776001;79;20628;-63
2021/05/22 06:00:25;;;;;;;;;;;;;;;21.52;61.22;100997.68;1775023;79;20227;-63
2021/05/22 06:02:51;;;;;;;;;;;;;;;21.51;61.22;100996.07;1765348;80;21117;-63
2021/05/22 06:05:18;;;;;;;;;;;;;;;21.50;61.22;101000.79;1765674;80;20490;-63
2021/05/22 06:07:44;;;;;;;;;;;;;;;21.51;61.20;101003.81;1762031;80;21484;-63
2021/05/22 06:10:10;;;;;;;;;;;;;;;21.52;61.19;101013.73;1774156;79;21898;-63
2021/05/22 06:12:37;;;;;;;;;;;;;;;21.51;61.22;101002.99;1776678;79;20674;-63
2021/05/22 06:15:10;;;;;;;;;;;;;;;21.53;61.20;101007.63;1770025;79;22097;-63
2021/05/22 06:17:31;;;;;;;;;;;;;;;21.52;61.19;101004.60;1773102;79;20341;-63
2021/05/22 06:19:57;;;;;;;;;;;;;;;21.53;61.18;101002.09;1771400;79;20271;-64
2021/05/22 06:22:23;;;;;;;;;;;;;;;21.52;61.17;101001.83;1774500;79;20506;-63
2021/05/22 06:24:49;;;;;;;;;;;;;;;21.53;61.19;100999.32;1775808;79;20219;-63
2021/05/22 06:27:15;;;;;;;;;;;;;;;21.53;61.17;100995.17;1774067;79;21046;-63
2021/05/22 06:29:41;;;;;;;;;;;;;;;21.53;61.17;100989.06;1772156;79;20760;-63
2021/05/22 06:32:07;;;;;;;;;;;;;;;21.53;61.15;100990.45;1775913;79;20218;-63
2021/05/22 06:34:34;;;;;;;;;;;;;;;21.55;61.16;100990.97;1773632;79;20179;-64
2021/05/22 06:37:01;;;;;;;;;;;;;;;21.56;61.13;100990.38;1772543;79;20665;-63
2021/05/22 06:39:27;;;;;;;;;;;;;;;21.57;61.15;100991.45;1774516;79;21167;-64
2021/05/22 06:41:53;;;;;;;;;;;;;;;21.57;61.12;100990.06;1777114;79;20309;-63
2021/05/22 06:44:25;;;;;;;;;;;;;;;21.57;61.14;100988.67;1775818;79;20350;-63
2021/05/22 06:46:47;;;;;;;;;;;;;;;21.58;61.11;100991.70;1773553;79;20602;-63
2021/05/22 06:49:13;;;;;;;;;;;;;;;21.59;61.14;100993.91;1772140;79;20682;-64
2021/05/22 06:51:40;;;;;;;;;;;;;;;21.60;61.10;100991.39;1773473;79;21677;-64
2021/05/22 06:54:06;;;;;;;;;;;;;;;21.61;61.09;100991.62;1776299;79;21585;-64
2021/05/22 06:56:32;;;;;;;;;;;;;;;21.64;61.11;100993.77;1775086;79;20297;-64
2021/05/22 06:58:58;;;;;;;;;;;;;;;21.67;61.10;100989.78;1775960;79;20266;-64
2021/05/22 07:01:24;;;;;;;;;;;;;;;21.68;61.06;100981.73;1775633;79;20760;-64
2021/05/22 07:03:49;;;;;;;;;;;;;;;21.71;61.06;100988.01;1777052;79;21202;-65
2021/05/22 07:06:15;;;;;;;;;;;;;;;21.72;61.03;100989.64;1772585;79;20657;-64
2021/05/22 07:08:41;;;;;;;;;;;;;;;21.73;61.02;100986.28;1775226;79;20202;-65
2021/05/22 07:11:07;;;;;;;;;;;;;;;21.74;61.02;100987.92;1778995;79;20195;-64
2021/05/22 07:13:33;;;;;;;;;;;;;;;21.77;61.01;100996.96;1774586;79;20263;-64
2021/05/22 07:15:59;;;;;;;;;;;;;;;21.77;60.99;101003.33;1775324;79;21022;-64
2021/05/22 07:18:25;;;;;;;;;;;;;;;21.79;60.97;101005.78;1769618;79;20226;-63
2021/05/22 07:20:51;;;;;;;;;;;;;;;21.81;60.97;101007.08;1770859;79;20175;-64
2021/05/22 07:23:17;;;;;;;;;;;;;;;21.86;60.93;101008.89;1774756;79;20264;-64
2021/05/22 07:25:43;;;;;;;;;;;;;;;21.92;60.94;101009.57;1771385;79;20196;-63
2021/05/22 07:28:14;;;;;;;;;;;;;;;21.97;60.95;101004.73;1772584;79;20966;-64
2021/05/22 07:30:37;;;;;;;;;;;;;;;22.04;60.99;101001.48;1771034;79;20283;-64
2021/05/22 07:33:03;;;;;;;;;;;;;;;22.11;60.95;101005.97;1770861;79;20278;-63
2021/05/22 07:35:28;;;;;;;;;;;;;;;22.16;60.94;101007.20;1773215;79;20487;-63
2021/05/22 07:37:55;;;;;;;;;;;;;;;22.22;60.89;101002.59;1771720;80;20549;-63
2021/05/22 07:40:20;;;;;;;;;;;;;;;22.27;60.85;101000.23;1775689;79;21893;-63
2021/05/22 07:42:50;;;;;;;;;;;;;;;22.33;60.79;101003.89;1775230;79;21531;-63
2021/05/22 07:45:17;;;;;;;;;;;;;;;22.37;60.72;100994.36;1775599;79;20309;-63
2021/05/22 07:47:44;;;;;;;;;;;;;;;22.39;60.65;100990.70;1773271;79;20568;-63
2021/05/22 07:50:11;;;;;;;;;;;;;;;22.41;60.58;100992.56;1771278;79;20241;-63
2021/05/22 07:52:40;;;;;;;;;;;;;;;22.44;60.48;100995.27;1772789;79;21277;-63
2021/05/22 07:55:06;;;;;;;;;;;;;;;22.44;60.38;100995.27;1772510;79;20250;-63
2021/05/22 07:57:33;;;;;;;;;;;;;;;22.43;60.28;100999.17;1773095;79;20240;-64
2021/05/22 07:59:59;;;;;;;;;;;;;;;22.42;60.23;101001.12;1772000;79;20967;-63
2021/05/22 08:02:25;;;;;;;;;;;;;;;22.41;60.13;100997.28;1774112;79;20326;-62
2021/05/22 08:04:51;;;;;;;;;;;;;;;22.38;60.02;100994.61;1774860;79;21129;-63
2021/05/22 08:07:17;;;;;;;;;;;;;;;22.38;60.00;100997.95;1770954;79;20275;-63
2021/05/22 08:09:43;;;;;;;;;;;;;;;22.35;59.95;100993.88;1771461;79;20293;-64
2021/05/22 08:12:09;;;;;;;;;;;;;;;22.33;59.88;100994.76;1776539;79;20233;-61
2021/05/22 08:14:35;;;;;;;;;;;;;;;22.32;59.85;100997.28;1770311;79;20194;-62
2021/05/22 08:17:01;;;;;;;;;;;;;;;22.31;59.81;101004.80;1771032;79;20993;-63
2021/05/22 08:19:27;;;;;;;;;;;;;;;22.28;59.80;100991.57;1770600;80;20465;-63
2021/05/22 08:21:53;;;;;;;;;;;;;;;22.29;59.75;101002.91;1765551;80;20216;-63
2021/05/22 08:24:19;;;;;;;;;;;;;;;22.26;59.72;100989.71;1772763;79;22046;-64
2021/05/22 08:26:45;;;;;;;;;;;;;;;22.25;59.71;100989.46;1771744;79;20224;-64
2021/05/22 08:29:11;;;;;;;;;;;;;;;22.24;59.70;100994.75;1773239;79;21185;-64
2021/05/22 08:31:37;;;;;;;;;;;;;;;22.24;59.70;101000.86;1774022;79;20223;-64
2021/05/22 08:34:03;;;;;;;;;;;;;;;22.23;59.69;100994.53;1775278;79;20504;-65
2021/05/22 08:36:30;;;;;;;;;;;;;;;22.21;59.67;100995.41;1770697;79;20170;-65
2021/05/22 08:38:56;;;;;;;;;;;;;;;22.21;59.68;100987.66;1760203;81;20240;-63
2021/05/22 08:41:22;;;;;;;;;;;;;;;22.20;59.66;100999.87;1773394;79;21503;-63
2021/05/22 08:43:48;;;;;;;;;;;;;;;22.19;59.67;100995.50;1771748;79;20240;-63
2021/05/22 08:46:16;;;;;;;;;;;;;;;22.17;59.65;100998.58;1773337;80;20236;-63
2021/05/22 08:48:43;;;;;;;;;;;;;;;22.16;59.70;100996.94;1775417;79;20225;-64
2021/05/22 08:51:09;;;;;;;;;;;;;;;22.15;59.71;100991.74;1770404;80;20208;-63
2021/05/22 08:53:35;;;;;;;;;;;;;;;22.14;59.70;100993.69;1768455;79;21261;-63
2021/05/22 08:56:02;;;;;;;;;;;;;;;22.14;59.72;100991.48;1773134;79;38233;-64
2021/05/22 08:58:28;;;;;;;;;;;;;;;22.14;59.73;100988.72;1774613;79;20238;-64
2021/05/22 09:00:54;;;;;;;;;;;;;;;22.13;59.72;100995.39;1773443;79;20166;-63
2021/05/22 09:03:20;;;;;;;;;;;;;;;22.12;59.75;100992.37;1774157;79;20584;-63
2021/05/22 09:05:46;;;;;;;;;;;;;;;22.12;59.75;100995.14;1771787;79;20711;-65
2021/05/22 09:08:14;;;;;;;;;;;;;;;22.11;59.77;100997.09;1772282;79;20257;-62
2021/05/22 09:10:47;;;;;;;;;;;;;;;22.11;59.75;100991.55;1768471;79;20249;-63
2021/05/22 09:13:24;;;;;;;;;;;;;;;22.10;59.77;100991.32;1767278;79;20196;-62
2021/05/22 09:16:02;;;;;;;;;;;;;;;22.10;59.78;100982.19;1770028;79;20584;-62
2021/05/22 09:18:36;;;;;;;;;;;;;;;22.08;59.77;100974.19;1771867;79;21049;-62
2021/05/22 09:21:04;;;;;;;;;;;;;;;22.09;59.79;100979.98;1770704;79;21620;-63
2021/05/22 09:23:32;;;;;;;;;;;;;;;22.08;59.78;100976.96;1769120;79;20252;-62
2021/05/22 09:26:04;;;;;;;;;;;;;;;22.07;59.77;100978.09;1770920;79;21908;-62
2021/05/22 09:28:32;;;;;;;;;;;;;;;22.07;59.79;100975.89;1764321;79;20219;-62
2021/05/22 09:30:58;;;;;;;;;;;;;;;22.09;59.79;100969.47;1772716;80;21056;-63
2021/05/22 09:33:29;;;;;;;;;;;;;;;22.07;59.79;100964.23;1742470;79;20494;-62
2021/05/22 09:35:59;;;;;;;;;;;;;;;22.09;59.81;100966.70;1770829;80;20236;-62
2021/05/22 09:38:55;;;;;;;;;;;;;;;22.06;59.84;100954.32;1753263;79;20289;-63
2021/05/22 09:41:27;;;;;;;;;;;;;;;22.07;59.85;100959.27;1733520;81;20547;-63
2021/05/22 09:44:09;;;;;;;;;;;;;;;22.07;59.86;100967.02;1735859;82;21104;-62
2021/05/22 09:46:36;;;;;;;;;;;;;;;22.07;59.90;100963.42;1739432;81;20217;-63
2021/05/22 09:49:07;;;;;;;;;;;;;;;22.07;59.90;100949.56;1734972;82;20219;-63
2021/05/22 09:51:33;;;;;;;;;;;;;;;22.06;59.93;100955.70;1734088;82;20456;-63
2021/05/22 09:53:59;;;;;;;;;;;;;;;22.07;59.94;100953.16;1732536;82;20260;-62
2021/05/22 09:56:26;;;;;;;;;;;;;;;22.07;59.97;100954.55;1743912;81;23240;-62
2021/05/22 09:58:54;;;;;;;;;;;;;;;22.07;59.99;100951.77;1738397;81;20233;-62
2021/05/22 10:01:27;;;;;;;;;;;;;;;22.09;59.99;100943.14;1742481;81;20208;-63
2021/05/22 10:03:53;;;;;;;;;;;;;;;22.10;60.04;100947.55;1737604;81;20165;-63
2021/05/22 10:06:19;;;;;;;;;;;;;;;22.11;60.03;100943.62;1733944;81;20161;-63
2021/05/22 10:08:46;;;;;;;;;;;;;;;22.13;60.05;100935.81;1736330;81;23115;-62
2021/05/22 10:11:12;;;;;;;;;;;;;;;22.18;60.04;100927.34;1736386;81;20202;-62
2021/05/22 10:13:40;;;;;;;;;;;;;;;22.23;60.05;100925.80;1746383;81;20205;-63
2021/05/22 10:16:06;;;;;;;;;;;;;;;22.31;60.12;100920.83;1742631;81;20221;-63
2021/05/22 10:18:33;;;;;;;;;;;;;;;22.39;60.15;100921.39;1740653;81;20245;-62
2021/05/22 10:21:01;;;;;;;;;;;;;;;22.45;60.21;100917.30;1744554;81;21404;-63
2021/05/22 10:23:27;;;;;;;;;;;;;;;22.51;60.21;100913.80;1741090;81;20181;-63
2021/05/22 10:25:54;;;;;;;;;;;;;;;22.57;60.26;100911.93;1736595;81;20247;-63
2021/05/22 10:28:21;;;;;;;;;;;;;;;22.64;60.24;100912.23;1743338;81;20284;-63
2021/05/22 10:30:47;;;;;;;;;;;;;;;22.71;60.22;100915.34;1738387;81;20162;-63
2021/05/22 10:33:14;;;;;;;;;;;;;;;22.76;60.23;100912.97;1740073;81;21711;-62
2021/05/22 10:35:43;;;;;;;;;;;;;;;22.81;60.22;100910.59;1736079;81;20297;-62
2021/05/22 10:38:09;;;;;;;;;;;;;;;22.86;60.21;100908.47;1745055;81;20229;-63
2021/05/22 10:40:46;;;;;;;;;;;;;;;22.90;60.12;100898.34;1763840;79;20219;-63
2021/05/22 10:43:12;;;;;;;;;;;;;;;22.94;60.05;100899.30;1765347;79;20302;-62
2021/05/22 10:45:40;;;;;;;;;;;;;;;22.97;59.96;100898.63;1764931;79;21120;-62
2021/05/22 10:48:19;;;;;;;;;;;;;;;22.96;59.89;100888.67;1767709;79;20339;-62
2021/05/22 10:50:47;;;;;;;;;;;;;;;22.96;59.82;100898.39;1768368;79;20441;-62
2021/05/22 10:53:33;;;;;;;;;;;;;;;22.94;59.74;100883.23;1765925;80;20286;-62
2021/05/22 10:56:04;;;;;;;;;;;;;;;22.92;59.72;100884.12;1768552;79;20484;-62
2021/05/22 10:58:30;;;;;;;;;;;;;;;22.90;59.67;100887.24;1763167;79;21416;-61
2021/05/22 11:01:28;;;;;;;;;;;;;;;22.89;59.64;100883.41;1767519;80;20208;-62
2021/05/22 11:04:14;;;;;;;;;;;;;;;22.89;59.63;100873.69;1765200;80;20133;-62
2021/05/22 11:06:51;;;;;;;;;;;;;;;22.87;59.61;100873.23;1765605;79;20460;-62
2021/05/22 11:09:35;;;;;;;;;;;;;;;22.85;59.56;100870.77;1766962;79;20216;-62
2021/05/22 11:12:02;;;;;;;;;;;;;;;22.84;59.54;100872.48;1766947;79;21176;-62
2021/05/22 11:14:40;;;;;;;;;;;;;;;22.82;59.54;100866.46;1768351;79;20230;-62
2021/05/22 11:17:33;;;;;;;;;;;;;;;22.79;59.54;100868.52;1765519;79;20243;-63
2021/05/22 11:20:03;;;;;;;;;;;;;;;22.78;59.52;100858.56;1761592;79;20333;-63
2021/05/22 11:22:35;;;;;;;;;;;;;;;22.78;59.54;100854.41;1763795;79;20238;-63
2021/05/22 11:25:11;;;;;;;;;;;;;;;22.77;59.51;100850.81;1762832;79;21527;-63
2021/05/22 11:27:48;;;;;;;;;;;;;;;22.76;59.49;100844.45;1763883;79;20461;-64
2021/05/22 11:30:22;;;;;;;;;;;;;;;22.77;59.48;100845.27;1767538;79;20477;-62
2021/05/22 11:32:57;;;;;;;;;;;;;;;22.79;59.49;100835.23;1744353;81;20123;-62
2021/05/22 11:35:34;;;;;;;;;;;;;;;22.79;59.49;100834.63;1764765;79;20333;-62
2021/05/22 11:38:21;;;;;;;;;;;;;;;22.80;59.48;100828.52;1763349;79;21407;-62
2021/05/22 11:40:48;;;;;;;;;;;;;;;22.81;59.46;100824.61;1735191;81;20150;-62
2021/05/22 11:43:29;;;;;;;;;;;;;;;22.81;59.46;100817.67;1734071;81;20277;-62
2021/05/22 11:46:03;;;;;;;;;;;;;;;22.82;59.42;100809.03;1736402;81;20549;-61
2021/05/22 11:48:38;;;;;;;;;;;;;;;22.83;59.43;100807.86;1740444;81;20242;-62
2021/05/22 11:51:14;;;;;;;;;;;;;;;22.84;59.40;100802.56;1736766;81;20996;-62
2021/05/22 11:53:41;;;;;;;;;;;;;;;22.86;59.42;100803.63;1733327;81;20221;-62
2021/05/22 11:56:15;;;;;;;;;;;;;;;22.88;59.38;100798.54;1743426;81;20519;-62
2021/05/22 11:58:48;;;;;;;;;;;;;;;22.89;59.36;100794.05;1737364;81;20233;-62
2021/05/22 12:01:31;;;;;;;;;;;;;;;22.91;59.35;100795.94;1738574;81;20165;-63
2021/05/22 12:04:00;;;;;;;;;;;;;;;22.94;59.35;100791.67;1736733;81;20973;-61
2021/05/22 12:06:29;;;;;;;;;;;;;;;22.95;59.30;100784.98;1741431;81;20237;-61
2021/05/22 12:09:01;;;;;;;;;;;;;;;22.96;59.28;100777.69;1740700;81;20692;-64
2021/05/22 12:11:30;;;;;;;;;;;;;;;22.99;59.27;100778.44;1738417;81;20259;-63
2021/05/22 12:14:03;;;;;;;;;;;;;;;23.01;59.24;100779.47;1735899;81;20221;-63
2021/05/22 12:16:29;;;;;;;;;;;;;;;23.03;59.23;100776.61;1736873;81;21909;-63
2021/05/22 12:18:55;;;;;;;;;;;;;;;23.05;59.20;100774.30;1746173;81;20161;-63
2021/05/22 12:21:27;;;;;;;;;;;;;;;23.07;59.19;100758.14;1741960;81;20257;-63
2021/05/22 12:23:55;;;;;;;;;;;;;;;23.09;59.17;100761.38;1745723;81;20237;-63
2021/05/22 12:26:21;;;;;;;;;;;;;;;23.11;59.14;100753.55;1742428;81;20225;-63
2021/05/22 12:28:47;;;;;;;;;;;;;;;23.14;59.13;100759.81;1739696;81;21145;-63
2021/05/22 12:31:13;;;;;;;;;;;;;;;23.15;59.08;100745.36;1743452;81;20729;-63
2021/05/22 12:33:39;;;;;;;;;;;;;;;23.18;59.10;100743.29;1735426;81;20887;-63
2021/05/22 12:36:07;;;;;;;;;;;;;;;23.20;59.06;100745.17;1742004;81;20420;-63
2021/05/22 12:38:41;;;;;;;;;;;;;;;23.22;59.03;100731.75;1742070;80;20225;-63